createdAt,value
2022-09-11T00:02:28.357Z,1.83
2022-09-11T00:05:31.596Z,1.60
2022-09-11T00:08:35.370Z,1.37
2022-09-11T00:11:41.563Z,1.40
2022-09-11T00:14:44.644Z,1.60
2022-09-11T00:17:49.102Z,1.50
2022-09-11T00:20:53.808Z,1.60
2022-09-11T00:23:57.686Z,1.43
2022-09-11T00:27:00.985Z,2.00
2022-09-11T00:30:04.303Z,1.73
2022-09-11T00:33:08.747Z,1.43
2022-09-11T00:36:15.815Z,1.93
2022-09-11T00:39:19.063Z,1.80
2022-09-11T00:42:22.138Z,2.00
2022-09-11T00:45:28.361Z,1.53
2022-09-11T00:48:36.766Z,2.03
2022-09-11T00:51:41.167Z,1.90
2022-09-11T00:54:49.664Z,1.77
2022-09-11T00:57:55.825Z,2.10
2022-09-11T01:00:59.262Z,1.40
2022-09-11T01:04:05.675Z,1.73
2022-09-11T01:07:08.867Z,1.97
2022-09-11T01:10:12.504Z,1.60
2022-09-11T01:13:24.306Z,2.07
2022-09-11T01:16:36.922Z,2.73
2022-09-11T01:20:05.653Z,2.57
2022-09-11T01:23:31.169Z,1.70
2022-09-11T01:26:55.611Z,1.40
2022-09-11T01:30:06.298Z,1.50
2022-09-11T01:33:20.875Z,2.17
2022-09-11T01:36:31.198Z,1.60
2022-09-11T01:39:39.556Z,1.80
2022-09-11T01:42:46.053Z,2.07
2022-09-11T01:45:53.376Z,2.27
2022-09-11T01:49:03.856Z,1.70
2022-09-11T01:52:11.155Z,1.60
2022-09-11T01:55:17.359Z,1.30
2022-09-11T01:58:23.865Z,2.00
2022-09-11T02:01:31.869Z,1.50
2022-09-11T02:04:38.997Z,2.00
2022-09-11T02:07:46.835Z,1.40
2022-09-11T02:10:54.821Z,2.10
2022-09-11T02:14:03.834Z,1.40
2022-09-11T02:17:16.673Z,1.93
2022-09-11T02:20:21.332Z,1.90
2022-09-11T02:23:24.422Z,1.50
2022-09-11T02:26:30.183Z,2.10
2022-09-11T02:29:34.184Z,2.53
2022-09-11T02:32:41.037Z,2.47
2022-09-11T02:35:52.925Z,1.60
2022-09-11T02:39:11.520Z,1.47
2022-09-11T02:42:28.818Z,1.57
2022-09-11T02:45:42.943Z,1.53
2022-09-11T02:48:58.188Z,1.50
2022-09-11T02:52:08.323Z,1.27
2022-09-11T02:55:16.712Z,1.77
2022-09-11T02:58:26.828Z,1.73
2022-09-11T03:01:29.903Z,1.40
2022-09-11T03:04:36.401Z,1.47
2022-09-11T03:07:39.835Z,1.40
2022-09-11T03:10:43.115Z,1.00
2022-09-11T03:13:46.595Z,1.17
2022-09-11T03:16:50.088Z,1.27
2022-09-11T03:19:54.526Z,1.50
2022-09-11T03:22:57.668Z,1.37
2022-09-11T03:26:00.760Z,1.30
2022-09-11T03:29:04.343Z,1.73
2022-09-11T03:32:07.488Z,1.47
2022-09-11T03:35:12.081Z,1.23
2022-09-11T03:38:15.741Z,1.30
2022-09-11T03:41:18.788Z,1.60
2022-09-11T03:44:21.867Z,1.40
2022-09-11T03:47:25.011Z,1.13
2022-09-11T03:50:29.437Z,1.33
2022-09-11T03:53:33.049Z,1.37
2022-09-11T03:56:37.277Z,1.20
2022-09-11T03:59:40.359Z,1.33
2022-09-11T04:02:43.435Z,1.30
2022-09-11T04:05:58.141Z,1.10
2022-09-11T04:09:01.425Z,1.47
2022-09-11T04:12:04.522Z,1.20
2022-09-11T04:15:08.852Z,0.80
2022-09-11T04:18:11.922Z,1.67
2022-09-11T04:21:17.851Z,1.27
2022-09-11T04:24:20.896Z,1.17
2022-09-11T04:27:23.959Z,1.30
2022-09-11T04:30:27.039Z,1.30
2022-09-11T04:33:30.121Z,1.20
2022-09-11T04:36:34.611Z,1.37
2022-09-11T04:39:37.712Z,1.20
2022-09-11T04:42:40.778Z,1.50
2022-09-11T04:45:43.841Z,1.23
2022-09-11T04:48:47.568Z,1.40
2022-09-11T04:51:52.342Z,1.07
2022-09-11T04:54:55.443Z,1.30
2022-09-11T04:57:58.504Z,1.50
2022-09-11T05:01:01.935Z,2.13
2022-09-11T05:04:05.061Z,1.53
2022-09-11T05:07:09.595Z,1.73
2022-09-11T05:10:12.633Z,1.80
2022-09-11T05:13:15.883Z,1.77
2022-09-11T05:16:19.510Z,1.70
2022-09-11T05:19:22.966Z,1.70
2022-09-11T05:22:27.578Z,1.30
2022-09-11T05:25:31.960Z,1.50
2022-09-11T05:28:35.297Z,1.70
2022-09-11T05:31:38.519Z,1.57
2022-09-11T05:34:41.607Z,1.50
2022-09-11T05:37:46.516Z,1.40
2022-09-11T05:40:51.278Z,1.90
2022-09-11T05:43:54.752Z,1.43
2022-09-11T05:46:58.520Z,1.87
2022-09-11T05:50:01.609Z,1.53
2022-09-11T05:53:06.585Z,1.40
2022-09-11T05:56:12.934Z,1.33
2022-09-11T05:59:16.639Z,1.47
2022-09-11T06:02:19.889Z,1.27
2022-09-11T06:05:23.133Z,1.73
2022-09-11T06:08:27.552Z,1.60
2022-09-11T06:11:31.015Z,1.57
2022-09-11T06:14:34.098Z,1.70
2022-09-11T06:17:37.705Z,2.40
2022-09-11T06:20:41.785Z,2.07
2022-09-11T06:23:46.408Z,1.90
2022-09-11T06:26:49.886Z,1.80
2022-09-11T06:29:53.185Z,1.90
2022-09-11T06:32:56.604Z,1.93
2022-09-11T06:36:00.308Z,1.90
2022-09-11T06:39:04.917Z,2.17
2022-09-11T06:42:08.256Z,1.87
2022-09-11T06:45:12.216Z,1.77
2022-09-11T06:48:15.701Z,1.90
2022-09-11T06:51:20.068Z,2.10
2022-09-11T06:54:24.597Z,2.60
2022-09-11T06:57:29.006Z,2.30
2022-09-11T07:00:34.347Z,1.97
2022-09-11T07:03:38.034Z,2.13
2022-09-11T07:06:41.116Z,2.37
2022-09-11T07:09:45.583Z,1.80
2022-09-11T07:12:48.638Z,2.00
2022-09-11T07:16:00.499Z,2.67
2022-09-11T07:19:04.424Z,2.10
2022-09-11T07:22:07.506Z,2.43
2022-09-11T07:25:12.303Z,2.20
2022-09-11T07:28:15.435Z,2.10
2022-09-11T07:31:21.351Z,2.10
2022-09-11T07:34:24.611Z,1.90
2022-09-11T07:37:27.688Z,1.70
2022-09-11T07:40:32.417Z,2.00
2022-09-11T07:43:36.184Z,2.07
2022-09-11T07:46:41.480Z,2.50
2022-09-11T07:49:48.236Z,1.87
2022-09-11T07:52:51.487Z,1.80
2022-09-11T07:55:56.132Z,1.80
2022-09-11T07:58:59.175Z,1.90
2022-09-11T08:02:02.572Z,2.07
2022-09-11T08:05:06.692Z,2.03
2022-09-11T08:08:09.741Z,2.03
2022-09-11T08:11:16.336Z,1.50
2022-09-11T08:14:19.416Z,1.80
2022-09-11T08:17:22.502Z,2.07
2022-09-11T08:20:25.619Z,1.40
2022-09-11T08:23:28.682Z,1.75
2022-09-11T08:26:33.872Z,2.15
2022-09-11T08:29:36.903Z,1.70
2022-09-11T08:32:40.239Z,2.17
2022-09-11T08:35:43.293Z,2.05
2022-09-11T08:38:47.440Z,1.52
2022-09-11T08:41:56.997Z,1.48
2022-09-11T08:45:03.663Z,1.55
2022-09-11T08:48:09.331Z,1.20
2022-09-11T08:51:17.407Z,1.13
2022-09-11T08:54:27.581Z,1.60
2022-09-11T08:57:41.948Z,1.20
2022-09-11T09:00:54.164Z,1.13
2022-09-11T09:04:09.897Z,1.23
2022-09-11T09:07:22.885Z,1.40
2022-09-11T09:10:37.653Z,1.13
2022-09-11T09:14:06.737Z,1.00
2022-09-11T09:17:14.299Z,1.20
2022-09-11T09:20:22.661Z,1.10
2022-09-11T09:23:30.298Z,1.27
2022-09-11T09:26:40.831Z,1.00
2022-09-11T09:29:47.870Z,0.80
2022-09-11T09:32:54.308Z,0.95
2022-09-11T09:35:57.893Z,1.00
2022-09-11T09:39:01.224Z,0.80
2022-09-11T09:42:42.781Z,0.90
2022-09-11T09:46:07.839Z,1.30
2022-09-11T09:49:11.814Z,0.82
2022-09-11T09:52:20.079Z,0.98
2022-09-11T09:55:23.640Z,1.10
2022-09-11T09:58:31.772Z,1.13
2022-09-11T10:01:47.868Z,1.37
2022-09-11T10:05:08.708Z,0.97
2022-09-11T10:08:29.354Z,1.07
2022-09-11T10:11:32.770Z,0.80
2022-09-11T10:14:51.496Z,0.70
2022-09-11T10:18:21.477Z,1.17
2022-09-11T10:21:29.702Z,1.10
2022-09-11T10:24:34.319Z,1.17
2022-09-11T10:27:44.625Z,0.90
2022-09-11T10:31:00.259Z,0.80
2022-09-11T10:34:06.282Z,0.80
2022-09-11T10:37:21.564Z,0.77
2022-09-11T10:40:25.006Z,0.80
2022-09-11T10:43:35.236Z,0.90
2022-09-11T10:46:39.750Z,0.80
2022-09-11T10:49:44.526Z,0.60
2022-09-11T10:53:16.472Z,1.03
2022-09-11T10:56:19.989Z,0.80
2022-09-11T10:59:31.431Z,0.63
2022-09-11T11:02:36.162Z,0.90
2022-09-11T11:05:51.874Z,0.67
2022-09-11T11:09:11.128Z,0.80
2022-09-11T11:12:40.222Z,0.40
2022-09-11T11:15:57.637Z,0.70
2022-09-11T11:19:17.627Z,0.60
2022-09-11T11:22:51.608Z,0.40
2022-09-11T11:26:07.552Z,0.60
2022-09-11T11:29:33.682Z,0.40
2022-09-11T11:32:50.519Z,0.50
2022-09-11T11:36:02.692Z,0.50
2022-09-11T11:39:19.656Z,0.50
2022-09-11T11:42:27.086Z,0.60
2022-09-11T11:45:35.104Z,0.40
2022-09-11T11:48:44.758Z,0.40
2022-09-11T11:51:52.869Z,0.40
2022-09-11T11:55:02.440Z,0.40
2022-09-11T11:58:13.579Z,0.53
2022-09-11T12:01:24.859Z,0.40
2022-09-11T12:04:42.653Z,0.60
2022-09-11T12:07:47.385Z,0.63
2022-09-11T12:11:00.208Z,0.40
2022-09-11T12:14:03.530Z,0.40
2022-09-11T12:17:19.469Z,0.70
2022-09-11T12:20:35.167Z,0.70
2022-09-11T12:24:18.766Z,1.00
2022-09-11T12:27:53.082Z,2.83
2022-09-11T12:31:05.022Z,2.40
2022-09-11T12:34:17.483Z,0.90
2022-09-11T12:37:28.083Z,3.03
2022-09-11T12:40:40.080Z,0.90
2022-09-11T12:43:49.955Z,0.60
2022-09-11T12:47:19.014Z,0.90
2022-09-11T12:50:27.102Z,0.90
2022-09-11T12:53:33.771Z,0.80
2022-09-11T12:56:37.057Z,1.00
2022-09-11T12:59:44.979Z,0.70
2022-09-11T13:02:55.303Z,0.60
2022-09-11T13:06:02.449Z,0.57
2022-09-11T13:09:06.744Z,0.53
2022-09-11T13:12:49.170Z,0.70
2022-09-11T13:15:57.341Z,0.60
2022-09-11T13:19:03.551Z,0.50
2022-09-11T13:22:22.748Z,0.40
2022-09-11T13:25:26.574Z,0.60
2022-09-11T13:28:31.826Z,0.50
2022-09-11T13:31:38.171Z,0.40
2022-09-11T13:34:45.085Z,0.30
2022-09-11T13:37:58.217Z,0.50
2022-09-11T13:41:07.043Z,0.63
2022-09-11T13:44:13.168Z,0.50
2022-09-11T13:47:22.033Z,0.53
2022-09-11T13:50:25.373Z,0.40
2022-09-11T13:53:29.215Z,0.40
2022-09-11T13:56:45.425Z,0.60
2022-09-11T13:59:50.187Z,0.43
2022-09-11T14:02:54.908Z,0.37
2022-09-11T14:06:00.295Z,0.40
2022-09-11T14:09:03.469Z,0.37
2022-09-11T14:12:07.564Z,0.30
2022-09-11T14:15:21.219Z,0.30
2022-09-11T14:18:32.541Z,0.47
2022-09-11T14:21:38.591Z,0.20
2022-09-11T14:24:53.949Z,0.30
2022-09-11T14:27:57.448Z,0.57
2022-09-11T14:31:07.981Z,0.47
2022-09-11T14:34:18.673Z,0.40
2022-09-11T14:37:22.729Z,0.30
2022-09-11T14:40:25.899Z,0.37
2022-09-11T14:43:32.749Z,0.30
2022-09-11T14:46:35.900Z,0.47
2022-09-11T14:49:40.406Z,0.70
2022-09-11T14:52:43.584Z,0.43
2022-09-11T14:55:47.159Z,0.33
2022-09-11T14:58:50.230Z,0.40
2022-09-11T15:01:53.431Z,0.27
2022-09-11T15:04:59.082Z,0.43
2022-09-11T15:08:03.380Z,0.30
2022-09-11T15:11:06.693Z,0.30
2022-09-11T15:14:20.772Z,0.43
2022-09-11T15:17:36.402Z,0.23
2022-09-11T15:20:41.109Z,0.50
2022-09-11T15:23:46.927Z,0.40
2022-09-11T15:26:50.016Z,0.30
2022-09-11T15:29:54.425Z,0.47
2022-09-11T15:32:57.585Z,0.30
2022-09-11T15:36:05.387Z,0.40
2022-09-11T15:39:09.756Z,0.40
2022-09-11T15:42:13.432Z,0.63
2022-09-11T15:45:17.199Z,0.40
2022-09-11T15:48:21.393Z,0.30
2022-09-11T15:51:25.829Z,0.40
2022-09-11T15:54:29.563Z,0.40
2022-09-11T15:57:32.992Z,0.60
2022-09-11T16:00:36.905Z,0.80
2022-09-11T16:03:40.323Z,0.30
2022-09-11T16:06:46.873Z,0.40
2022-09-11T16:09:49.950Z,0.50
2022-09-11T16:12:58.831Z,0.30
2022-09-11T16:16:04.045Z,0.50
2022-09-11T16:19:07.137Z,0.80
2022-09-11T16:22:11.618Z,0.50
2022-09-11T16:25:14.715Z,0.50
2022-09-11T16:28:17.866Z,0.40
2022-09-11T16:31:21.532Z,0.70
2022-09-11T16:34:24.734Z,0.63
2022-09-11T16:37:32.888Z,0.60
2022-09-11T16:40:36.527Z,0.40
2022-09-11T16:43:41.318Z,0.60
2022-09-11T16:46:44.989Z,0.83
2022-09-11T16:50:06.476Z,0.70
2022-09-11T16:53:13.976Z,0.67
2022-09-11T16:56:20.045Z,0.87
2022-09-11T16:59:23.136Z,0.80
2022-09-11T17:02:26.581Z,0.37
2022-09-11T17:05:29.661Z,0.90
2022-09-11T17:08:35.346Z,0.60
2022-09-11T17:11:38.472Z,0.50
2022-09-11T17:14:41.626Z,0.67
2022-09-11T17:17:44.705Z,0.50
2022-09-11T17:20:47.959Z,0.90
2022-09-11T17:23:53.801Z,0.90
2022-09-11T17:26:58.085Z,0.43
2022-09-11T17:30:01.154Z,0.70
2022-09-11T17:33:04.587Z,0.67
2022-09-11T17:36:10.058Z,0.60
2022-09-11T17:39:14.775Z,0.40
2022-09-11T17:42:17.900Z,0.73
2022-09-11T17:45:21.143Z,0.67
2022-09-11T17:48:24.452Z,0.60
2022-09-11T17:51:28.358Z,0.73
2022-09-11T17:54:33.058Z,0.70
2022-09-11T17:57:36.393Z,0.70
2022-09-11T18:00:39.778Z,0.90
2022-09-11T18:03:43.441Z,0.80
2022-09-11T18:06:46.759Z,0.90
2022-09-11T18:09:56.092Z,1.67
2022-09-11T18:12:59.610Z,2.40
2022-09-11T18:16:06.527Z,2.60
2022-09-11T18:19:12.494Z,2.90
2022-09-11T18:22:16.013Z,2.70
2022-09-11T18:25:23.543Z,2.47
2022-09-11T18:28:29.804Z,1.40
2022-09-11T18:31:39.934Z,1.40
2022-09-11T18:34:43.759Z,2.00
2022-09-11T18:37:47.008Z,1.93
2022-09-11T18:41:00.052Z,2.80
2022-09-11T18:44:06.788Z,2.00
2022-09-11T18:47:10.223Z,1.40
2022-09-11T18:50:13.691Z,1.10
2022-09-11T18:53:17.357Z,1.20
2022-09-11T18:56:23.561Z,1.17
2022-09-11T18:59:27.081Z,1.30
2022-09-11T19:02:30.524Z,1.23
2022-09-11T19:05:34.370Z,1.33
2022-09-11T19:08:38.608Z,2.50
2022-09-11T19:11:43.654Z,1.60
2022-09-11T19:14:47.463Z,1.93
2022-09-11T19:17:51.866Z,1.60
2022-09-11T19:21:00.560Z,1.60
2022-09-11T19:24:04.283Z,1.30
2022-09-11T19:27:09.001Z,1.20
2022-09-11T19:30:14.030Z,1.10
2022-09-11T19:33:17.277Z,0.90
2022-09-11T19:36:22.882Z,1.10
2022-09-11T19:39:27.023Z,1.70
2022-09-11T19:42:32.749Z,1.20
2022-09-11T19:45:36.043Z,1.60
2022-09-11T19:48:39.794Z,1.40
2022-09-11T19:51:45.313Z,1.77
2022-09-11T19:54:48.665Z,1.17
2022-09-11T19:57:53.825Z,1.20
2022-09-11T20:00:57.397Z,1.30
2022-09-11T20:04:01.290Z,1.13
2022-09-11T20:07:05.616Z,2.30
2022-09-11T20:10:09.894Z,1.30
2022-09-11T20:13:14.508Z,1.00
2022-09-11T20:16:20.983Z,1.33
2022-09-11T20:19:24.220Z,1.17
2022-09-11T20:22:27.307Z,0.90
2022-09-11T20:25:30.563Z,1.03
2022-09-11T20:28:35.054Z,1.30
2022-09-11T20:31:48.879Z,1.10
2022-09-11T20:34:52.281Z,1.70
2022-09-11T20:37:55.417Z,2.10
2022-09-11T20:41:00.461Z,2.20
2022-09-11T20:44:05.940Z,2.00
2022-09-11T20:47:10.346Z,1.70
2022-09-11T20:50:14.161Z,1.53
2022-09-11T20:53:17.275Z,0.83
2022-09-11T20:56:23.522Z,1.33
2022-09-11T20:59:28.026Z,1.10
2022-09-11T21:02:31.063Z,1.10
2022-09-11T21:05:34.140Z,1.30
2022-09-11T21:08:37.509Z,1.20
2022-09-11T21:11:42.233Z,1.40
2022-09-11T21:14:46.691Z,1.20
2022-09-11T21:17:50.433Z,1.40
2022-09-11T21:20:56.367Z,1.37
2022-09-11T21:24:02.351Z,1.20
2022-09-11T21:27:05.815Z,1.37
2022-09-11T21:30:11.399Z,0.93
2022-09-11T21:33:14.499Z,1.10
2022-09-11T21:36:17.597Z,1.67
2022-09-11T21:39:20.695Z,1.20
2022-09-11T21:42:23.750Z,1.20
2022-09-11T21:45:28.228Z,1.13
2022-09-11T21:48:35.724Z,1.13
2022-09-11T21:51:39.159Z,1.30
2022-09-11T21:54:42.260Z,1.37
2022-09-11T21:57:45.516Z,1.07
2022-09-11T22:00:50.347Z,1.40
2022-09-11T22:03:54.339Z,1.23
2022-09-11T22:06:57.390Z,0.80
2022-09-11T22:10:01.452Z,1.10
2022-09-11T22:13:04.578Z,1.17
2022-09-11T22:16:11.702Z,1.27
2022-09-11T22:19:14.825Z,1.00
2022-09-11T22:22:18.645Z,1.33
2022-09-11T22:25:21.723Z,1.20
2022-09-11T22:28:24.842Z,1.30
2022-09-11T22:31:29.361Z,1.20
2022-09-11T22:34:34.047Z,0.90
2022-09-11T22:37:37.120Z,1.00
2022-09-11T22:40:40.310Z,0.97
2022-09-11T22:43:43.388Z,1.17
2022-09-11T22:46:48.984Z,1.10
2022-09-11T22:49:52.125Z,1.10
2022-09-11T22:52:55.468Z,0.97
2022-09-11T22:55:59.170Z,0.97
2022-09-11T22:59:02.260Z,0.93
2022-09-11T23:02:06.923Z,1.27
2022-09-11T23:05:27.530Z,1.20
2022-09-11T23:08:35.764Z,1.20
2022-09-11T23:11:41.633Z,1.20
2022-09-11T23:14:45.678Z,1.27
2022-09-11T23:17:50.156Z,1.10
2022-09-11T23:20:54.750Z,1.40
2022-09-11T23:23:59.285Z,1.23
2022-09-11T23:27:02.376Z,1.00
2022-09-11T23:30:06.204Z,1.10
2022-09-11T23:33:11.865Z,1.10
2022-09-11T23:36:16.462Z,1.70
2022-09-11T23:39:19.555Z,1.17
2022-09-11T23:42:23.607Z,1.30
2022-09-11T23:45:26.799Z,1.10
2022-09-11T23:48:31.421Z,1.27
2022-09-11T23:51:34.771Z,1.10
2022-09-11T23:54:37.866Z,1.67
2022-09-11T23:57:40.955Z,1.17
